Time;durP1;ratioP1;P1;durP2;ratioP2;P2;SDS_P1;SDS_P2;PMS_P1;PMS_P2;Temp;Humidity;BMP_temperature;BMP_pressure;BME280_temperature;BME280_humidity;BME280_pressure;Samples;Min_cycle;Max_cycle;Signal;HPM_P1;HPM_P2
2020/12/20 00:02:10;;;;;;;1.37;1.27;;;5.90;99.90;;;;;;5076647;28;20181;-75
2020/12/20 00:04:35;;;;;;;1.87;1.50;;;5.80;99.90;;;;;;5075472;28;20207;-76
2020/12/20 00:07:01;;;;;;;1.57;1.47;;;5.80;99.90;;;;;;5075454;28;20192;-75
2020/12/20 00:09:27;;;;;;;1.70;1.43;;;5.80;99.90;;;;;;5076336;28;20196;-77
2020/12/20 00:11:53;;;;;;;1.30;1.20;;;5.70;99.90;;;;;;5076951;28;21079;-76
2020/12/20 00:14:29;;;;;;;2.07;1.20;;;5.70;99.90;;;;;;5074503;28;20181;-77
2020/12/20 00:17:00;;;;;;;1.23;1.13;;;5.70;99.90;;;;;;5074597;28;20200;-76
2020/12/20 00:19:27;;;;;;;2.80;1.63;;;5.60;99.90;;;;;;5072509;28;20255;-76
2020/12/20 00:22:08;;;;;;;1.60;1.30;;;5.60;99.90;;;;;;5074654;28;20741;-76
2020/12/20 00:24:34;;;;;;;1.43;1.30;;;5.60;99.90;;;;;;5081012;28;20181;-75
2020/12/20 00:27:01;;;;;;;1.63;1.53;;;5.60;99.90;;;;;;5075926;28;20209;-75
2020/12/20 00:29:27;;;;;;;1.97;1.47;;;5.70;99.90;;;;;;5075050;28;20232;-76
2020/12/20 00:31:53;;;;;;;1.60;1.33;;;5.70;99.90;;;;;;5077277;28;20940;-76
2020/12/20 00:34:19;;;;;;;1.40;1.20;;;5.80;99.90;;;;;;5077198;28;20275;-76
2020/12/20 00:36:46;;;;;;;1.57;1.07;;;5.80;99.90;;;;;;5079625;28;20565;-77
2020/12/20 00:39:14;;;;;;;1.57;1.47;;;5.90;99.90;;;;;;5080180;28;20238;-76
2020/12/20 00:41:40;;;;;;;1.17;1.07;;;6.00;99.90;;;;;;5079117;28;20659;-76
2020/12/20 00:44:06;;;;;;;2.63;1.30;;;6.00;99.90;;;;;;5081201;28;20212;-77
2020/12/20 00:46:34;;;;;;;1.30;1.20;;;6.10;99.90;;;;;;5087770;28;20265;-76
2020/12/20 00:49:01;;;;;;;1.50;1.23;;;6.20;99.90;;;;;;5080334;28;20208;-76
2020/12/20 00:51:26;;;;;;;2.43;1.53;;;6.30;99.90;;;;;;5079295;28;20201;-76
2020/12/20 00:53:52;;;;;;;1.43;1.20;;;6.30;99.90;;;;;;5078227;28;21100;-76
2020/12/20 00:56:17;;;;;;;1.43;1.07;;;6.30;99.90;;;;;;5077670;28;20173;-76
2020/12/20 00:58:43;;;;;;;1.73;1.10;;;6.30;99.90;;;;;;5076454;28;20181;-76
2020/12/20 01:01:10;;;;;;;1.27;1.17;;;6.40;99.90;;;;;;5078579;28;21073;-77
2020/12/20 01:03:37;;;;;;;1.50;1.40;;;6.30;99.90;;;;;;5080897;28;20181;-76
2020/12/20 01:06:04;;;;;;;2.67;1.60;;;6.30;99.90;;;;;;5079694;28;20264;-77
2020/12/20 01:08:29;;;;;;;1.87;1.10;;;6.40;99.90;;;;;;5075642;28;20560;-76
2020/12/20 01:10:55;;;;;;;1.20;1.10;;;6.40;99.90;;;;;;5079757;28;20295;-78
2020/12/20 01:13:21;;;;;;;1.53;1.40;;;6.40;99.90;;;;;;5081001;28;20723;-77
2020/12/20 01:15:47;;;;;;;1.57;1.10;;;6.40;99.90;;;;;;5076434;28;20197;-76
2020/12/20 01:18:13;;;;;;;1.30;1.20;;;6.40;99.90;;;;;;5078797;28;20189;-77
2020/12/20 01:20:39;;;;;;;1.07;0.97;;;6.40;99.90;;;;;;5077353;28;20251;-76
2020/12/20 01:23:05;;;;;;;1.83;1.47;;;6.40;99.90;;;;;;5079195;28;20647;-77
2020/12/20 01:25:31;;;;;;;1.27;1.17;;;6.50;99.90;;;;;;5080074;28;20183;-76
2020/12/20 01:27:57;;;;;;;1.50;1.40;;;6.50;99.90;;;;;;5078853;28;20190;-77
2020/12/20 01:30:22;;;;;;;1.00;0.90;;;6.50;99.90;;;;;;5079639;28;20204;-76
2020/12/20 01:32:48;;;;;;;1.30;1.20;;;6.50;99.90;;;;;;5077703;28;20177;-77
2020/12/20 01:35:14;;;;;;;1.67;1.40;;;6.50;99.90;;;;;;5079071;28;20198;-77
2020/12/20 01:37:39;;;;;;;1.13;1.00;;;6.50;99.90;;;;;;5079036;28;20180;-78
2020/12/20 01:40:06;;;;;;;1.67;1.43;;;6.60;99.90;;;;;;5079972;28;20205;-77
2020/12/20 01:42:32;;;;;;;2.00;1.30;;;6.50;99.90;;;;;;5077227;28;20185;-77
2020/12/20 01:44:58;;;;;;;1.93;1.57;;;6.50;99.90;;;;;;5076842;28;20188;-77
2020/12/20 01:47:29;;;;;;;1.40;1.30;;;6.50;99.90;;;;;;5077992;28;20189;-77
2020/12/20 01:49:55;;;;;;;1.83;1.40;;;6.50;99.90;;;;;;5076996;28;20213;-77
2020/12/20 01:52:21;;;;;;;1.73;1.60;;;6.50;99.90;;;;;;5079096;28;20177;-77
2020/12/20 01:54:50;;;;;;;1.43;1.30;;;6.50;99.90;;;;;;5079478;28;20181;-77
2020/12/20 01:57:15;;;;;;;2.60;1.50;;;6.50;99.90;;;;;;5081246;28;21156;-77
2020/12/20 01:59:41;;;;;;;1.80;1.33;;;6.50;99.90;;;;;;5080513;28;20217;-77
2020/12/20 02:02:07;;;;;;;2.03;1.53;;;6.40;99.90;;;;;;5077975;28;20625;-78
2020/12/20 02:04:33;;;;;;;1.83;1.40;;;6.50;99.90;;;;;;5078082;28;20185;-78
2020/12/20 02:07:00;;;;;;;2.33;1.30;;;6.40;99.90;;;;;;5077068;28;20691;-78
2020/12/20 02:09:26;;;;;;;1.57;1.20;;;6.40;99.90;;;;;;5076528;28;20208;-78
2020/12/20 02:11:51;;;;;;;2.27;1.33;;;6.40;99.90;;;;;;5075827;28;20209;-78
2020/12/20 02:14:17;;;;;;;1.47;1.33;;;6.40;99.90;;;;;;5074830;28;20186;-78
2020/12/20 02:16:43;;;;;;;2.10;1.50;;;6.30;99.90;;;;;;5075732;28;20177;-78
2020/12/20 02:19:08;;;;;;;1.80;0.90;;;6.40;99.90;;;;;;5076610;28;20291;-78
2020/12/20 02:21:34;;;;;;;1.03;0.93;;;6.40;99.90;;;;;;5077368;28;20295;-78
2020/12/20 02:23:59;;;;;;;1.50;1.40;;;6.40;99.90;;;;;;5075492;28;20222;-78
2020/12/20 02:26:27;;;;;;;1.90;1.57;;;6.40;99.90;;;;;;5074872;28;20181;-79
2020/12/20 02:28:55;;;;;;;1.33;1.10;;;6.50;99.90;;;;;;5077480;28;20177;-78
2020/12/20 02:31:22;;;;;;;2.87;1.43;;;6.50;99.90;;;;;;5077290;28;20197;-78
2020/12/20 02:33:48;;;;;;;1.47;1.13;;;6.50;99.90;;;;;;5075593;28;20321;-78
2020/12/20 02:36:14;;;;;;;1.63;1.10;;;6.50;99.90;;;;;;5076140;28;20213;-77
2020/12/20 02:38:40;;;;;;;1.97;1.23;;;6.50;99.90;;;;;;5076663;28;20256;-77
2020/12/20 02:41:07;;;;;;;3.67;1.70;;;6.50;99.90;;;;;;5077803;28;20721;-78
2020/12/20 02:43:32;;;;;;;1.77;1.67;;;6.60;99.90;;;;;;5076434;28;20207;-78
2020/12/20 02:45:58;;;;;;;1.70;1.33;;;6.60;99.90;;;;;;5075074;28;20650;-78
2020/12/20 02:48:23;;;;;;;2.00;1.53;;;6.60;99.90;;;;;;5077023;28;20189;-77
2020/12/20 02:50:49;;;;;;;1.80;1.33;;;6.60;99.90;;;;;;5075724;28;20224;-78
2020/12/20 02:53:15;;;;;;;1.20;1.10;;;6.50;99.90;;;;;;5076533;28;20260;-77
2020/12/20 02:55:40;;;;;;;2.10;1.57;;;6.50;99.90;;;;;;5074458;28;20189;-78
2020/12/20 02:58:06;;;;;;;1.77;1.50;;;6.50;99.90;;;;;;5075198;28;20276;-77
2020/12/20 03:00:34;;;;;;;1.73;1.40;;;6.50;99.90;;;;;;5075630;28;20249;-78
2020/12/20 03:02:59;;;;;;;1.83;1.50;;;6.50;99.90;;;;;;5075721;28;20188;-77
2020/12/20 03:05:25;;;;;;;1.53;1.37;;;6.40;99.90;;;;;;5074614;28;20189;-78
2020/12/20 03:07:50;;;;;;;1.70;1.60;;;6.40;99.90;;;;;;5075700;28;20216;-78
2020/12/20 03:10:19;;;;;;;1.33;1.23;;;6.30;99.90;;;;;;5083275;28;20208;-78
2020/12/20 03:12:45;;;;;;;2.43;1.40;;;6.20;99.90;;;;;;5075711;28;20173;-78
2020/12/20 03:15:12;;;;;;;1.63;1.53;;;6.10;99.90;;;;;;5074201;28;20181;-77
2020/12/20 03:17:37;;;;;;;1.63;1.30;;;6.10;99.90;;;;;;5075795;28;20263;-78
2020/12/20 03:20:06;;;;;;;1.40;1.30;;;6.10;99.90;;;;;;5075798;28;20210;-77
2020/12/20 03:22:32;;;;;;;1.30;1.20;;;6.10;99.90;;;;;;5076286;28;20234;-78
2020/12/20 03:24:58;;;;;;;3.20;1.73;;;6.00;99.90;;;;;;5075873;28;20585;-78
2020/12/20 03:27:23;;;;;;;1.93;1.23;;;6.00;99.90;;;;;;5076390;28;20599;-78
2020/12/20 03:29:49;;;;;;;1.70;1.53;;;6.00;99.90;;;;;;5074854;28;20350;-78
2020/12/20 03:32:15;;;;;;;2.10;1.40;;;5.90;99.90;;;;;;5076352;28;20630;-78
2020/12/20 03:34:40;;;;;;;2.03;1.57;;;5.80;99.90;;;;;;5077719;28;20204;-78
2020/12/20 03:37:06;;;;;;;2.10;1.80;;;5.80;99.90;;;;;;5075428;28;20195;-78
2020/12/20 03:39:32;;;;;;;1.63;1.50;;;5.80;99.90;;;;;;5077039;28;20889;-78
2020/12/20 03:41:57;;;;;;;4.60;1.70;;;5.80;99.90;;;;;;5076980;28;20182;-77
2020/12/20 03:44:23;;;;;;;2.03;1.83;;;6.00;99.90;;;;;;5076462;28;20189;-77
2020/12/20 03:46:49;;;;;;;1.67;1.40;;;6.00;99.90;;;;;;5077442;28;20189;-77
2020/12/20 03:49:15;;;;;;;1.83;1.47;;;6.00;99.90;;;;;;5075122;28;20197;-78
2020/12/20 03:51:40;;;;;;;2.37;2.00;;;6.00;99.90;;;;;;5076660;28;20236;-78
2020/12/20 03:54:07;;;;;;;2.13;1.43;;;6.10;99.90;;;;;;5077190;28;20279;-78
2020/12/20 03:56:33;;;;;;;2.90;2.07;;;6.10;99.90;;;;;;5076366;28;20951;-77
2020/12/20 03:58:59;;;;;;;2.10;1.73;;;6.20;99.90;;;;;;5076261;28;20209;-77
2020/12/20 04:01:25;;;;;;;2.47;1.63;;;6.20;99.90;;;;;;5077931;28;20208;-77
2020/12/20 04:03:51;;;;;;;2.10;1.90;;;6.30;99.90;;;;;;5075641;28;20280;-77
2020/12/20 04:06:17;;;;;;;2.77;2.07;;;6.30;99.90;;;;;;5074870;28;20268;-77
2020/12/20 04:08:42;;;;;;;2.37;1.70;;;6.30;99.90;;;;;;5074415;28;20185;-77
2020/12/20 04:11:08;;;;;;;2.43;2.03;;;6.30;99.90;;;;;;5075933;28;20198;-77
2020/12/20 04:13:34;;;;;;;1.50;1.40;;;6.40;99.90;;;;;;5075871;28;20187;-78
2020/12/20 04:16:07;;;;;;;1.13;1.03;;;6.40;99.90;;;;;;5066022;28;20720;-77
2020/12/20 04:18:33;;;;;;;1.60;1.50;;;6.40;99.90;;;;;;5076918;28;20177;-78
2020/12/20 04:20:59;;;;;;;2.53;1.73;;;6.40;99.90;;;;;;5075550;28;20206;-77
2020/12/20 04:23:25;;;;;;;1.43;1.33;;;6.50;99.90;;;;;;5073803;28;20196;-77
2020/12/20 04:25:50;;;;;;;2.47;1.70;;;6.50;99.90;;;;;;5076334;28;20190;-78
2020/12/20 04:28:16;;;;;;;1.67;1.50;;;6.60;99.90;;;;;;5076760;28;20275;-77
2020/12/20 04:30:42;;;;;;;2.03;1.87;;;6.60;99.90;;;;;;5077334;28;20221;-78
2020/12/20 04:33:07;;;;;;;1.80;1.53;;;6.60;99.90;;;;;;5075358;28;20643;-78
2020/12/20 04:35:33;;;;;;;1.87;1.50;;;6.60;99.90;;;;;;5077352;28;20194;-78
2020/12/20 04:37:59;;;;;;;2.03;1.50;;;6.60;99.90;;;;;;5074766;28;20184;-77
2020/12/20 04:40:25;;;;;;;2.23;1.83;;;6.60;99.90;;;;;;5076117;28;20213;-77
2020/12/20 04:42:57;;;;;;;2.17;1.77;;;6.60;99.90;;;;;;5075997;28;20241;-78
2020/12/20 04:45:23;;;;;;;1.97;1.77;;;6.60;99.90;;;;;;5075719;28;20710;-78
2020/12/20 04:47:51;;;;;;;2.00;1.83;;;6.50;99.90;;;;;;5075388;28;20191;-77
2020/12/20 04:50:17;;;;;;;1.63;1.40;;;6.60;99.90;;;;;;5075285;28;20209;-77
2020/12/20 04:52:46;;;;;;;2.00;1.73;;;6.50;99.90;;;;;;5075849;28;20192;-77
2020/12/20 04:55:14;;;;;;;3.17;2.50;;;6.40;99.90;;;;;;5076391;28;20185;-78
2020/12/20 04:57:39;;;;;;;2.37;1.80;;;6.30;99.90;;;;;;5074045;28;21082;-78
2020/12/20 05:00:06;;;;;;;1.57;1.13;;;6.30;99.90;;;;;;5075581;28;20220;-77
2020/12/20 05:02:32;;;;;;;1.93;1.73;;;6.20;99.90;;;;;;5075316;28;20278;-78
2020/12/20 05:04:58;;;;;;;2.17;1.70;;;6.20;99.90;;;;;;5075207;28;20181;-78
2020/12/20 05:07:24;;;;;;;2.07;1.83;;;6.10;99.90;;;;;;5075683;28;20195;-77
2020/12/20 05:09:49;;;;;;;2.03;1.83;;;6.10;99.90;;;;;;5076816;28;20209;-77
2020/12/20 05:12:29;;;;;;;2.67;2.00;;;6.10;99.90;;;;;;5074035;28;20217;-77
2020/12/20 05:14:55;;;;;;;2.33;2.13;;;6.10;99.90;;;;;;5073385;28;20227;-78
2020/12/20 05:17:21;;;;;;;2.57;1.90;;;6.10;99.90;;;;;;5076020;28;20189;-77
2020/12/20 05:19:47;;;;;;;1.97;1.50;;;6.00;99.90;;;;;;5077931;28;20247;-77
2020/12/20 05:22:15;;;;;;;2.63;1.67;;;6.00;99.90;;;;;;5077849;28;20181;-77
2020/12/20 05:24:42;;;;;;;2.17;1.70;;;6.00;99.90;;;;;;5076746;28;20300;-77
2020/12/20 05:27:28;;;;;;;1.70;1.50;;;6.00;99.90;;;;;;5079445;28;20185;-77
2020/12/20 05:30:12;;;;;;;1.90;1.50;;;6.00;99.90;;;;;;5078683;28;20692;-77
2020/12/20 05:32:40;;;;;;;2.03;1.93;;;6.00;99.90;;;;;;5078608;28;20278;-78
2020/12/20 05:35:08;;;;;;;2.50;1.67;;;5.90;99.90;;;;;;5077160;28;20177;-77
2020/12/20 05:37:35;;;;;;;2.60;2.30;;;5.90;99.90;;;;;;5076907;28;20827;-78
2020/12/20 05:40:06;;;;;;;2.37;1.97;;;5.90;99.90;;;;;;5078812;28;20204;-78
2020/12/20 05:42:32;;;;;;;1.50;1.40;;;5.90;99.90;;;;;;5077707;28;20185;-77
2020/12/20 05:45:03;;;;;;;3.57;2.10;;;5.90;99.90;;;;;;5078100;28;20189;-77
2020/12/20 05:47:28;;;;;;;2.23;2.00;;;5.80;99.90;;;;;;5077443;28;20185;-78
2020/12/20 05:49:54;;;;;;;2.87;2.17;;;5.80;99.90;;;;;;5078245;28;20208;-77
2020/12/20 05:52:20;;;;;;;4.13;2.67;;;5.80;99.90;;;;;;5076899;28;20181;-77
2020/12/20 05:54:45;;;;;;;2.67;1.70;;;5.80;99.90;;;;;;5077695;28;20197;-78
2020/12/20 05:57:22;;;;;;;2.67;2.17;;;5.90;99.90;;;;;;5077349;28;20192;-78
2020/12/20 05:59:50;;;;;;;2.63;2.00;;;5.90;99.90;;;;;;5083659;28;20220;-78
2020/12/20 06:02:16;;;;;;;2.60;2.03;;;5.80;99.90;;;;;;5077725;28;20196;-77
2020/12/20 06:04:43;;;;;;;2.00;1.37;;;5.70;99.90;;;;;;5077902;28;20185;-77
2020/12/20 06:07:11;;;;;;;2.67;2.23;;;5.70;99.90;;;;;;5078817;28;20647;-78
2020/12/20 06:09:59;;;;;;;2.63;1.97;;;5.70;99.90;;;;;;5076767;28;20197;-78
2020/12/20 06:12:26;;;;;;;2.57;2.07;;;5.70;99.90;;;;;;5075911;28;20186;-77
2020/12/20 06:14:53;;;;;;;2.40;2.20;;;5.70;99.90;;;;;;5077642;28;20189;-78
2020/12/20 06:17:24;;;;;;;1.97;1.60;;;5.70;99.90;;;;;;5077751;28;20209;-78
2020/12/20 06:20:00;;;;;;;1.90;1.77;;;5.80;99.90;;;;;;5077621;28;20304;-78
2020/12/20 06:22:29;;;;;;;2.17;1.97;;;5.80;99.90;;;;;;5077119;28;20268;-78
2020/12/20 06:24:57;;;;;;;2.73;2.30;;;5.70;99.90;;;;;;5069084;28;20211;-78
2020/12/20 06:27:25;;;;;;;2.30;1.83;;;5.80;99.90;;;;;;5078996;28;20181;-78
2020/12/20 06:30:02;;;;;;;2.30;1.90;;;5.70;99.90;;;;;;5081095;28;20289;-77
2020/12/20 06:32:44;;;;;;;3.50;2.30;;;5.60;99.90;;;;;;5077689;28;20196;-76
2020/12/20 06:35:23;;;;;;;3.17;2.07;;;5.60;99.90;;;;;;5078725;28;20189;-77
2020/12/20 06:37:49;;;;;;;2.20;2.00;;;5.50;99.90;;;;;;5079466;28;20654;-77
2020/12/20 06:40:41;;;;;;;2.67;1.67;;;5.50;99.90;;;;;;5079519;28;20656;-77
2020/12/20 06:43:07;;;;;;;2.70;2.27;;;5.40;99.90;;;;;;5094363;28;20617;-77
2020/12/20 06:45:42;;;;;;;2.67;1.90;;;5.40;99.90;;;;;;5079040;28;20208;-76
2020/12/20 06:48:09;;;;;;;2.10;1.70;;;5.40;99.90;;;;;;5078060;28;20177;-77
2020/12/20 06:50:38;;;;;;;2.37;2.17;;;5.40;99.90;;;;;;5076502;28;20697;-77
2020/12/20 06:53:07;;;;;;;2.87;2.03;;;5.40;99.90;;;;;;5078915;28;20224;-77
2020/12/20 06:55:33;;;;;;;2.27;1.83;;;5.50;99.90;;;;;;5078235;28;20169;-77
2020/12/20 06:58:11;;;;;;;2.33;2.00;;;5.40;99.90;;;;;;5077791;28;20185;-78
2020/12/20 07:00:39;;;;;;;2.53;2.33;;;5.40;99.90;;;;;;5078193;28;20285;-78
2020/12/20 07:03:05;;;;;;;2.93;2.20;;;5.50;99.90;;;;;;5077072;28;20196;-78
2020/12/20 07:05:41;;;;;;;2.70;2.03;;;5.40;99.90;;;;;;5076439;28;20238;-78
2020/12/20 07:08:07;;;;;;;2.70;1.77;;;5.50;99.90;;;;;;5076837;28;20256;-78
2020/12/20 07:10:47;;;;;;;3.00;2.43;;;5.50;99.90;;;;;;5075812;28;20801;-78
2020/12/20 07:13:14;;;;;;;2.57;2.10;;;5.50;99.90;;;;;;5076100;28;20223;-78
2020/12/20 07:15:52;;;;;;;2.60;2.17;;;5.60;99.90;;;;;;5075127;28;20180;-79
2020/12/20 07:18:53;;;;;;;2.03;1.83;;;5.60;99.90;;;;;;5076716;28;20283;-78
2020/12/20 07:21:18;;;;;;;2.37;1.90;;;5.60;99.90;;;;;;5082144;28;20189;-78
2020/12/20 07:23:49;;;;;;;2.60;2.20;;;5.70;99.90;;;;;;5075697;28;21212;-79
2020/12/20 07:26:15;;;;;;;3.57;2.40;;;5.80;99.90;;;;;;5076332;28;20181;-78
2020/12/20 07:28:41;;;;;;;2.87;2.17;;;5.80;99.90;;;;;;5074229;28;20182;-78
2020/12/20 07:31:16;;;;;;;2.80;2.03;;;5.80;99.90;;;;;;5073311;28;20701;-79
2020/12/20 07:33:45;;;;;;;3.10;2.20;;;5.80;99.90;;;;;;5075333;28;20681;-78
2020/12/20 07:36:11;;;;;;;2.57;2.00;;;5.80;99.90;;;;;;5074225;28;20525;-77
2020/12/20 07:38:36;;;;;;;3.40;2.27;;;5.80;99.90;;;;;;5075121;28;20191;-78
2020/12/20 07:41:09;;;;;;;2.73;2.30;;;5.80;99.90;;;;;;5074041;28;20239;-78
2020/12/20 07:43:35;;;;;;;3.23;2.13;;;5.80;99.90;;;;;;5075265;28;20177;-78
2020/12/20 07:46:03;;;;;;;2.73;2.50;;;5.70;99.90;;;;;;5075504;28;20187;-78
2020/12/20 07:48:29;;;;;;;3.10;2.37;;;5.60;99.90;;;;;;5081563;28;20215;-78
2020/12/20 07:51:16;;;;;;;1.83;1.57;;;5.60;99.90;;;;;;5074830;28;20219;-78
2020/12/20 07:53:46;;;;;;;2.13;1.70;;;5.60;99.90;;;;;;5075276;28;20177;-73
2020/12/20 07:56:43;;;;;;;3.53;2.27;;;5.60;99.90;;;;;;5074733;28;20616;-81
2020/12/20 07:59:13;;;;;;;2.20;1.67;;;5.60;99.90;;;;;;5065806;28;20221;-78
2020/12/20 08:01:40;;;;;;;3.17;2.30;;;5.60;99.90;;;;;;5075182;28;20182;-78
2020/12/20 08:04:07;;;;;;;3.50;2.10;;;5.70;99.90;;;;;;5073348;28;20173;-78
2020/12/20 08:06:34;;;;;;;2.57;2.07;;;5.60;99.90;;;;;;5074032;28;20238;-77
2020/12/20 08:09:06;;;;;;;2.43;2.20;;;5.70;99.90;;;;;;5073409;28;20831;-79
2020/12/20 08:11:32;;;;;;;2.10;1.77;;;5.70;99.90;;;;;;5074067;28;20204;-77
2020/12/20 08:14:04;;;;;;;3.57;2.33;;;5.70;99.90;;;;;;5073284;28;20203;-80
2020/12/20 08:16:32;;;;;;;4.10;2.50;;;5.70;99.90;;;;;;5075999;28;20581;-77
2020/12/20 08:19:06;;;;;;;2.17;1.93;;;5.70;99.90;;;;;;5078129;28;20752;-76
2020/12/20 08:21:37;;;;;;;3.27;2.50;;;5.70;99.90;;;;;;5077057;28;20872;-77
2020/12/20 08:24:03;;;;;;;3.13;2.33;;;5.70;99.90;;;;;;5079221;28;20213;-78
2020/12/20 08:26:33;;;;;;;1.97;1.73;;;5.70;99.90;;;;;;5078404;28;20231;-77
2020/12/20 08:28:59;;;;;;;3.13;2.17;;;5.70;99.90;;;;;;5078214;28;20231;-77
2020/12/20 08:31:29;;;;;;;3.63;2.77;;;5.70;99.90;;;;;;5076359;28;20205;-78
2020/12/20 08:33:56;;;;;;;3.57;3.00;;;5.70;99.90;;;;;;5075711;28;20185;-77
2020/12/20 08:36:22;;;;;;;2.83;2.00;;;5.70;99.90;;;;;;5075592;28;20193;-78
2020/12/20 08:38:49;;;;;;;2.67;2.00;;;5.80;99.90;;;;;;5074873;28;20186;-78
2020/12/20 08:41:26;;;;;;;3.23;2.10;;;5.80;99.90;;;;;;5076050;28;20272;-77
2020/12/20 08:44:25;;;;;;;4.47;2.83;;;5.80;99.90;;;;;;5076165;28;20184;-77
2020/12/20 08:46:51;;;;;;;4.80;2.70;;;5.70;99.90;;;;;;5070342;28;20201;-77
2020/12/20 08:49:21;;;;;;;2.63;2.00;;;5.80;99.90;;;;;;5077365;28;20204;-77
2020/12/20 08:51:48;;;;;;;3.03;2.60;;;5.80;99.90;;;;;;5078825;28;20208;-77
2020/12/20 08:54:28;;;;;;;2.37;2.10;;;5.80;99.90;;;;;;5078851;28;20185;-77
2020/12/20 08:56:58;;;;;;;2.30;2.10;;;5.80;99.90;;;;;;5079826;28;20212;-77
2020/12/20 08:59:34;;;;;;;2.80;2.30;;;5.90;99.90;;;;;;5081462;28;20212;-76
2020/12/20 09:02:01;;;;;;;3.00;2.10;;;5.90;99.90;;;;;;5078469;28;20176;-77
2020/12/20 09:04:32;;;;;;;2.50;2.17;;;5.80;99.90;;;;;;5079281;28;20196;-78
2020/12/20 09:07:11;;;;;;;3.10;2.73;;;5.90;99.90;;;;;;5076899;28;20185;-78
2020/12/20 09:09:38;;;;;;;2.87;2.20;;;5.90;99.90;;;;;;5087648;28;20443;-77
2020/12/20 09:12:15;;;;;;;3.23;2.93;;;6.00;99.90;;;;;;5079147;28;20293;-76
2020/12/20 09:14:57;;;;;;;2.83;2.40;;;6.00;99.90;;;;;;5075766;28;20184;-78
2020/12/20 09:17:36;;;;;;;4.50;2.57;;;6.10;99.90;;;;;;5075987;28;20165;-74
2020/12/20 09:20:04;;;;;;;3.93;2.67;;;6.10;99.90;;;;;;5079100;28;20225;-74
2020/12/20 09:22:45;;;;;;;3.40;2.80;;;6.10;99.90;;;;;;5079673;28;20204;-74
2020/12/20 09:25:34;;;;;;;4.00;2.90;;;6.20;99.90;;;;;;5073974;28;20215;-74
2020/12/20 09:28:18;;;;;;;5.10;4.43;;;6.20;99.90;;;;;;5082723;28;20180;-74
2020/12/20 09:30:51;;;;;;;6.30;5.20;;;6.30;99.90;;;;;;5077530;28;20877;-74
2020/12/20 09:33:27;;;;;;;3.63;2.73;;;6.30;99.90;;;;;;5077780;28;20205;-74
2020/12/20 09:35:56;;;;;;;4.90;3.93;;;6.30;99.90;;;;;;5076093;28;20228;-74
2020/12/20 09:38:23;;;;;;;4.20;3.10;;;6.30;99.90;;;;;;5084333;28;20219;-73
2020/12/20 09:41:15;;;;;;;5.23;4.13;;;6.40;99.90;;;;;;5076420;28;20942;-73
2020/12/20 09:43:42;;;;;;;9.40;6.80;;;6.40;99.90;;;;;;5075003;28;20235;-74
2020/12/20 09:46:09;;;;;;;6.33;4.83;;;6.50;99.90;;;;;;5076239;28;21134;-77
2020/12/20 09:48:35;;;;;;;5.33;4.33;;;6.50;99.90;;;;;;5078188;28;20940;-77
2020/12/20 09:51:01;;;;;;;5.60;4.10;;;6.50;99.90;;;;;;5077331;28;20209;-78
2020/12/20 09:53:26;;;;;;;4.97;4.17;;;6.60;99.90;;;;;;5072452;28;20924;-77
2020/12/20 09:55:52;;;;;;;9.33;5.53;;;6.60;99.90;;;;;;5076258;28;20204;-76
2020/12/20 09:58:18;;;;;;;5.47;3.13;;;6.70;99.90;;;;;;5075991;28;20238;-77
2020/12/20 10:00:44;;;;;;;4.83;3.60;;;6.70;99.90;;;;;;5076130;28;20221;-77
2020/12/20 10:03:11;;;;;;;13.93;7.00;;;6.80;99.90;;;;;;5075659;28;20242;-77
2020/12/20 10:05:39;;;;;;;10.70;7.67;;;6.80;99.90;;;;;;5072661;28;20213;-77
2020/12/20 10:08:06;;;;;;;6.03;4.53;;;6.90;99.90;;;;;;5074983;28;20181;-77
2020/12/20 10:10:32;;;;;;;3.27;2.70;;;6.90;99.90;;;;;;5067034;28;20218;-77
2020/12/20 10:12:58;;;;;;;4.10;3.23;;;6.90;99.90;;;;;;5075924;28;20569;-78
2020/12/20 10:15:25;;;;;;;3.43;2.70;;;7.00;99.90;;;;;;5077720;28;20189;-77
2020/12/20 10:17:51;;;;;;;3.97;3.13;;;7.00;99.90;;;;;;5079307;28;20667;-76
2020/12/20 10:20:17;;;;;;;3.03;2.67;;;7.00;99.90;;;;;;5075270;28;20201;-78
2020/12/20 10:22:43;;;;;;;6.03;5.03;;;6.90;99.90;;;;;;5074763;28;20185;-77
2020/12/20 10:25:09;;;;;;;4.53;3.30;;;6.90;99.90;;;;;;5072942;28;20177;-77
2020/12/20 10:27:34;;;;;;;3.97;2.93;;;6.80;99.90;;;;;;5075618;28;20197;-77
2020/12/20 10:30:00;;;;;;;3.67;2.63;;;6.80;99.90;;;;;;5076064;28;20205;-77
2020/12/20 10:32:26;;;;;;;2.97;2.67;;;6.80;99.90;;;;;;5075705;28;20342;-78
2020/12/20 10:34:52;;;;;;;4.43;3.13;;;6.80;99.90;;;;;;5074629;28;20671;-79
2020/12/20 10:37:17;;;;;;;3.30;3.00;;;6.80;99.90;;;;;;5077102;28;20182;-78
2020/12/20 10:39:43;;;;;;;2.97;2.67;;;6.80;99.90;;;;;;5075332;28;20767;-79
2020/12/20 10:42:13;;;;;;;4.60;2.60;;;6.80;99.90;;;;;;5074197;28;20192;-78
2020/12/20 10:44:39;;;;;;;3.33;1.90;;;6.80;99.90;;;;;;5074465;28;20177;-78
2020/12/20 10:47:05;;;;;;;3.73;2.40;;;6.90;99.90;;;;;;5072673;28;20192;-79
2020/12/20 10:49:31;;;;;;;3.00;2.47;;;6.90;99.90;;;;;;5073493;28;20214;-78
2020/12/20 10:51:56;;;;;;;4.17;2.90;;;6.90;99.90;;;;;;5076465;28;20265;-79
2020/12/20 10:54:23;;;;;;;5.07;3.00;;;6.90;99.90;;;;;;5076043;28;20188;-79
2020/12/20 10:56:49;;;;;;;5.83;3.03;;;6.90;99.90;;;;;;5073399;28;20178;-80
2020/12/20 10:59:15;;;;;;;4.50;2.83;;;7.00;99.90;;;;;;5075479;28;20273;-79
2020/12/20 11:01:41;;;;;;;4.63;3.33;;;7.00;99.90;;;;;;5075134;28;20296;-78
2020/12/20 11:04:07;;;;;;;4.93;2.83;;;7.00;99.90;;;;;;5072978;28;20278;-79
2020/12/20 11:06:33;;;;;;;4.77;2.83;;;7.00;99.90;;;;;;5074734;28;20188;-77
2020/12/20 11:08:58;;;;;;;3.17;2.10;;;7.00;99.90;;;;;;5073751;28;20192;-79
2020/12/20 11:11:29;;;;;;;3.77;3.17;;;7.00;99.90;;;;;;5074177;28;20283;-79
2020/12/20 11:13:54;;;;;;;3.23;2.37;;;7.00;99.90;;;;;;5074864;28;20180;-80
2020/12/20 11:16:20;;;;;;;3.80;3.00;;;7.00;99.90;;;;;;5075445;28;20197;-77
2020/12/20 11:18:47;;;;;;;4.57;2.50;;;7.00;99.90;;;;;;5074801;28;20181;-76
2020/12/20 11:21:17;;;;;;;3.47;2.90;;;7.10;99.90;;;;;;5075964;28;20193;-77
2020/12/20 11:23:44;;;;;;;3.27;2.80;;;7.00;99.90;;;;;;5079756;28;20193;-78
2020/12/20 11:26:15;;;;;;;3.20;2.63;;;7.00;99.90;;;;;;5068203;28;20960;-77
2020/12/20 11:28:42;;;;;;;4.37;2.87;;;7.00;99.90;;;;;;5073703;28;20748;-76
2020/12/20 11:31:10;;;;;;;4.13;2.80;;;7.00;99.90;;;;;;5076900;28;20213;-78
2020/12/20 11:33:36;;;;;;;4.33;3.50;;;6.90;99.90;;;;;;5076760;28;20222;-77
2020/12/20 11:36:02;;;;;;;4.03;3.60;;;6.90;99.90;;;;;;5075641;28;20192;-76
2020/12/20 11:38:28;;;;;;;3.57;2.60;;;6.90;99.90;;;;;;5074361;28;20587;-77
2020/12/20 11:40:55;;;;;;;4.50;2.93;;;7.00;99.90;;;;;;5077470;28;20280;-77
2020/12/20 11:43:22;;;;;;;3.07;2.33;;;7.00;99.90;;;;;;5078957;28;20181;-77
2020/12/20 11:45:48;;;;;;;4.63;2.97;;;6.90;99.90;;;;;;5075313;28;20192;-78
2020/12/20 11:48:14;;;;;;;3.20;2.80;;;7.00;99.90;;;;;;5083652;28;20187;-77
2020/12/20 11:50:40;;;;;;;2.77;2.27;;;7.00;99.90;;;;;;5078490;28;20667;-77
2020/12/20 11:53:05;;;;;;;4.33;3.27;;;7.00;99.90;;;;;;5079806;28;20446;-79
2020/12/20 11:55:31;;;;;;;4.17;2.70;;;7.10;99.90;;;;;;5075929;28;20296;-75
2020/12/20 11:57:57;;;;;;;3.13;2.77;;;7.00;99.90;;;;;;5074315;28;20220;-77
2020/12/20 12:00:24;;;;;;;3.43;3.10;;;7.00;99.90;;;;;;5076714;28;20217;-78
2020/12/20 12:02:50;;;;;;;2.87;2.20;;;7.10;99.90;;;;;;5078693;28;21409;-76
2020/12/20 12:05:15;;;;;;;4.33;3.10;;;7.10;99.90;;;;;;5078615;28;20268;-77
2020/12/20 12:07:41;;;;;;;3.93;2.87;;;7.10;99.90;;;;;;5080176;28;20211;-76
2020/12/20 12:10:07;;;;;;;5.47;3.10;;;7.20;99.90;;;;;;5078350;28;20245;-76
2020/12/20 12:12:32;;;;;;;4.23;3.03;;;7.30;99.90;;;;;;5079732;28;20225;-77
2020/12/20 12:14:58;;;;;;;4.10;3.10;;;7.30;99.90;;;;;;5081074;28;20189;-76
2020/12/20 12:17:23;;;;;;;4.63;3.30;;;7.30;99.90;;;;;;5074057;28;20751;-80
2020/12/20 12:19:49;;;;;;;3.73;2.90;;;7.40;99.90;;;;;;5074202;28;20200;-79
2020/12/20 12:22:15;;;;;;;4.10;2.90;;;7.40;99.90;;;;;;5074550;28;20184;-79
2020/12/20 12:24:40;;;;;;;3.30;2.43;;;7.50;99.90;;;;;;5074307;28;20220;-79
2020/12/20 12:27:06;;;;;;;3.73;2.77;;;7.50;99.90;;;;;;5071116;28;20228;-79
2020/12/20 12:29:31;;;;;;;3.60;3.13;;;7.60;99.90;;;;;;5080400;28;20248;-79
2020/12/20 12:31:57;;;;;;;5.80;3.40;;;7.60;99.90;;;;;;5073121;28;20243;-79
2020/12/20 12:34:23;;;;;;;12.17;6.30;;;7.60;99.90;;;;;;5074481;28;20216;-80
2020/12/20 12:36:48;;;;;;;11.17;5.77;;;7.60;99.90;;;;;;5072499;28;20308;-79
2020/12/20 12:39:14;;;;;;;6.97;3.97;;;7.60;99.90;;;;;;5073775;28;20276;-79
2020/12/20 12:41:39;;;;;;;6.70;3.60;;;7.60;99.90;;;;;;5073087;28;20190;-80
2020/12/20 12:44:05;;;;;;;4.03;3.40;;;7.50;99.90;;;;;;5072061;28;20193;-79
2020/12/20 12:46:30;;;;;;;4.43;3.97;;;7.50;99.90;;;;;;5073834;28;20192;-79
2020/12/20 12:48:56;;;;;;;5.57;4.43;;;7.50;99.90;;;;;;5073865;28;20185;-79
2020/12/20 12:51:23;;;;;;;5.83;3.93;;;7.50;99.90;;;;;;5072732;28;20802;-78
2020/12/20 12:53:49;;;;;;;3.80;2.90;;;7.40;99.90;;;;;;5080763;28;20217;-78
2020/12/20 12:56:15;;;;;;;5.40;3.80;;;7.40;99.90;;;;;;5072637;28;20188;-79
2020/12/20 12:58:42;;;;;;;4.93;3.23;;;7.40;99.90;;;;;;5073479;28;20647;-79
2020/12/20 13:01:07;;;;;;;6.37;3.10;;;7.40;99.90;;;;;;5072740;28;20193;-79
2020/12/20 13:03:33;;;;;;;8.33;5.60;;;7.40;99.90;;;;;;5074614;28;20250;-79